Flight Track Log - Related Links

Times and Time Zones

All times are in EDT time to prevent confusion due to time zone crossing. See the AWI4007 flight status page for this flight to view local times or setup timezone preferences in your user account.

Time Position Orientation Groundspeed Altitude Reporting Facility
EDT Latitude Longitude Course Direction KTS MPH feet Rate Location/Type
Thu 08:14:02 AM 39.8667 -75.2833 270° West 159 183 600  Level Philadelphia TRACON
Thu 08:15:15 AM 39.8500 -75.3667 255° West 203 234 3,000 2,328 Climbing Philadelphia TRACON
Thu 08:16:00 AM 39.9018 -75.5921 285° West  Level FlightAware Approximate
Thu 08:17:00 AM 39.9088 -75.7140 258° West  Level FlightAware Approximate
Thu 08:17:05 AM 39.9150 -75.4369 320° Northwest 233 268 7,700  Level New York Center
Thu 08:18:00 AM 39.9000 -75.8382 270° West  Level FlightAware Approximate
Thu 08:18:07 AM 39.9647 -75.4942 319° Northwest 222 255 9,300  Level New York Center
Thu 08:19:00 AM 39.9000 -75.9636 270° West  Level FlightAware Approximate
Thu 08:19:05 AM 39.9425 -75.5794 251° West 220 253 11,300  Level New York Center
Thu 08:20:07 AM 39.9231 -75.6944 258° West 282 325 12,000 1,180 Climbing New York Center
Thu 08:21:07 AM 39.9269 -75.8031 273° West 329 379 13,700 1,700 Climbing New York Center
Thu 08:22:07 AM 39.9317 -75.9361 273° West 335 386 15,400 1,525 Climbing New York Center
Thu 08:23:05 AM 39.9369 -76.0531 273° West 355 409 16,700 1,424 Climbing New York Center
Thu 08:24:05 AM 39.9408 -76.1942 272° West 364 419 18,200 1,250 Climbing New York Center
Thu 08:25:05 AM 39.9458 -76.3108 273° West 370 426 19,200 992 Climbing New York Center
Thu 08:26:06 AM 39.9478 -76.4439 271° West 370 426 20,200 893 Climbing New York Center
Thu 08:27:06 AM 39.9539 -76.5797 273° West 370 426 21,000 793 Climbing New York Center
Thu 08:28:07 AM 39.9572 -76.7181 272° West 370 426 21,800 807 Climbing New York Center
Thu 08:29:05 AM 39.9625 -76.8594 273° West 380 437 22,600 821 Climbing New York Center
Thu 08:30:04 AM 39.9658 -76.9981 272° West 387 445 23,400 850 Climbing New York Center
Thu 08:31:05 AM 39.9706 -77.1419 272° West 393 452 24,300 836 Climbing New York Center
Thu 08:32:06 AM 39.9756 -77.2806 273° West 393 452 25,100 1,118 Climbing New York Center
Thu 08:33:46 AM 39.9822 -77.5267 272° West 379 436 27,300 1,132 Climbing Cleveland Center
Thu 08:34:45 AM 39.9881 -77.6619 273° West 379 436 28,100 700 Climbing Cleveland Center
Thu 08:35:46 AM 39.9892 -77.7975 271° West 379 436 28,700 496 Climbing Cleveland Center
Thu 08:36:46 AM 39.9925 -77.9328 272° West 379 436 29,100 454 Climbing Cleveland Center
Thu 08:37:45 AM 39.9956 -78.0681 272° West 384 442 29,600 555 Climbing Cleveland Center
Thu 08:38:45 AM 39.9986 -78.2064 272° West 384 442 30,200 550 Climbing Cleveland Center
Thu 08:39:45 AM 40.0033 -78.3444 273° West 384 442 30,700 500 Climbing Cleveland Center
Thu 08:40:45 AM 40.0039 -78.4797 270° West 384 442 31,200 500 Climbing Cleveland Center
Thu 08:41:45 AM 40.0086 -78.6181 273° West 384 442 31,700 500 Climbing Cleveland Center
Thu 08:42:45 AM 40.0086 -78.7536 270° West 384 442 32,200 500 Climbing Cleveland Center
Thu 08:43:45 AM 40.0108 -78.8864 271° West 384 442 32,700 500 Climbing Cleveland Center
Thu 08:44:45 AM 40.0128 -79.0217 271° West 384 442 33,200 496 Climbing Cleveland Center
Thu 08:45:46 AM 40.0122 -79.1519 270° West 379 436 33,700 350 Climbing Cleveland Center
Thu 08:46:45 AM 40.0139 -79.2847 271° West 374 430 33,900 151 Climbing Cleveland Center
Thu 08:47:45 AM 40.0153 -79.4203 271° West 369 425 34,000 50 Climbing Cleveland Center
Thu 08:48:45 AM 40.0167 -79.5394 271° West 369 425 34,000  Level Cleveland Center
Thu 08:49:45 AM 40.0178 -79.6778 271° West 369 425 34,000  Level Cleveland Center
Thu 08:50:45 AM 40.0189 -79.8214 271° West 381 438 34,000  Level Cleveland Center
Thu 08:51:45 AM 40.0175 -79.9622 269° West 391 450 34,000  Level Cleveland Center
Thu 08:52:45 AM 40.0183 -80.1086 270° West 391 450 34,000  Level Cleveland Center
Thu 08:53:45 AM 40.0208 -80.2522 271° West 403 464 34,000  Level Cleveland Center
Thu 08:54:46 AM 40.0253 -80.4014 272° West 403 464 34,000  Level Cleveland Center
Thu 08:55:45 AM 40.0275 -80.5506 271° West 403 464 34,000  Level Cleveland Center
Thu 08:56:45 AM 40.0294 -80.6969 271° West 403 464 34,000  Level Cleveland Center
Thu 08:57:46 AM 40.0314 -80.8461 271° West 403 464 34,000  Level Cleveland Center
Thu 08:59:21 AM 40.0331 -81.0794 271° West 403 464 34,000  Level Indianapolis Center
Thu 09:00:23 AM 40.0350 -81.2269 271° West 403 464 34,000  Level Indianapolis Center
Thu 09:01:25 AM 40.0364 -81.3778 271° West 408 470 34,000  Level Indianapolis Center
Thu 09:02:27 AM 40.0381 -81.5261 271° West 405 466 34,000  Level Indianapolis Center
Thu 09:03:29 AM 40.0403 -81.6992 271° West 405 466 34,000  Level Indianapolis Center
Thu 09:04:31 AM 40.0419 -81.8303 271° West 406 467 34,000  Level Indianapolis Center
Thu 09:05:32 AM 40.0431 -82.0008 271° West 400 460 34,000  Level Indianapolis Center
Thu 09:06:34 AM 40.0436 -82.1500 270° West 406 467 34,000  Level Indianapolis Center
Thu 09:07:36 AM 40.0436 -82.2972 270° West 403 464 34,000  Level Indianapolis Center
Thu 09:08:38 AM 40.0447 -82.4439 271° West 401 461 34,000  Level Indianapolis Center
Thu 09:09:40 AM 40.0450 -82.5894 270° West 399 459 34,000  Level Indianapolis Center
Thu 09:10:42 AM 40.0456 -82.7336 270° West 396 456 34,000  Level Indianapolis Center
Thu 09:11:44 AM 40.0450 -82.8772 270° West 394 453 34,000  Level Indianapolis Center
Thu 09:12:46 AM 40.0456 -83.0181 270° West 387 445 34,000  Level Indianapolis Center
Thu 09:13:48 AM 40.0450 -83.1839 270° West 388 447 34,000  Level Indianapolis Center
Thu 09:14:50 AM 40.0444 -83.3253 270° West 390 449 34,000  Level Indianapolis Center
Thu 09:15:52 AM 40.0444 -83.4653 270° West 388 447 34,000  Level Indianapolis Center
Thu 09:16:54 AM 40.0431 -83.6061 269° West 390 449 34,000  Level Indianapolis Center
Thu 09:17:56 AM 40.0411 -83.7458 269° West 387 445 34,000  Level Indianapolis Center
Thu 09:18:58 AM 40.0400 -83.9106 270° West 387 445 34,000  Level Indianapolis Center
Thu 09:20:00 AM 40.0383 -84.0539 269° West 391 450 34,000  Level Indianapolis Center
Thu 09:21:02 AM 40.0381 -84.1956 270° West 389 448 34,000  Level Indianapolis Center
Thu 09:22:04 AM 40.0356 -84.3383 269° West 391 450 34,000  Level Indianapolis Center
Thu 09:23:06 AM 40.0331 -84.4800 269° West 391 450 34,000  Level Indianapolis Center
Thu 09:24:08 AM 40.0300 -84.6231 268° West 392 451 34,000  Level Indianapolis Center
Thu 09:25:10 AM 40.0272 -84.7897 269° West 392 451 34,000  Level Indianapolis Center
Thu 09:26:12 AM 40.0250 -84.9267 269° West 387 445 34,000  Level Indianapolis Center
Thu 09:27:14 AM 40.0231 -85.0689 269° West 392 451 34,000  Level Indianapolis Center
Thu 09:28:16 AM 40.0200 -85.2069 268° West 385 443 34,000  Level Indianapolis Center
Thu 09:29:18 AM 40.0161 -85.3469 268° West 387 445 34,000  Level Indianapolis Center
Thu 09:30:08 AM 40.0147 -85.4561 269° West 382 440 34,000  Level Indianapolis Center
Thu 09:31:10 AM 40.0108 -85.6214 268° West 382 440 34,000  Level Indianapolis Center
Thu 09:32:12 AM 40.0075 -85.7567 268° West 377 434 34,000  Level Indianapolis Center
Thu 09:33:14 AM 40.0039 -85.8919 268° West 377 434 34,000  Level Indianapolis Center
Thu 09:34:16 AM 40.0008 -86.0253 268° West 373 429 34,000  Level Indianapolis Center
Thu 09:35:18 AM 39.9969 -86.1589 268° West 373 429 34,000  Level Indianapolis Center
Thu 09:35:40 AM 39.9950 -86.2114 267° West 374 430 34,000  Level Chicago Center
Thu 09:36:42 AM 39.9900 -86.3697 268° West 371 427 34,000  Level Chicago Center
Thu 09:37:22 AM 39.9881 -86.4492 268° West 370 426 34,000  Level Indianapolis Center
Thu 09:38:24 AM 39.9831 -86.5817 267° West 370 426 34,000  Level Indianapolis Center
Thu 09:39:26 AM 39.9783 -86.7131 267° West 369 425 34,000  Level Indianapolis Center
Thu 09:40:28 AM 39.9739 -86.8725 268° West 367 422 34,000  Level Indianapolis Center
Thu 09:41:30 AM 39.9686 -87.0050 267° West 369 425 34,000  Level Indianapolis Center
Thu 09:42:32 AM 39.9642 -87.1383 268° West 370 426 34,000  Level Indianapolis Center
Thu 09:43:34 AM 39.9583 -87.2722 267° West 372 428 34,000  Level Indianapolis Center
Thu 09:44:36 AM 39.9531 -87.4072 267° West 374 430 34,000  Level Indianapolis Center
Thu 09:45:38 AM 39.9464 -87.5681 267° West 373 429 34,000  Level Indianapolis Center
Thu 09:46:40 AM 39.9411 -87.7019 267° West 372 428 34,000  Level Indianapolis Center
Thu 09:47:43 AM 39.9347 -87.8367 267° West 375 432 34,000  Level Indianapolis Center
Thu 09:48:29 AM 39.9306 -87.9450 267° West 374 430 34,000  Level Chicago Center
Thu 09:49:31 AM 39.9242 -88.0792 266° West 373 429 34,000  Level Chicago Center
Thu 09:50:33 AM 39.9189 -88.2117 267° West 373 429 34,000  Level Chicago Center
Thu 09:51:35 AM 39.9097 -88.3486 265° West 376 433 34,000  Level Chicago Center
Thu 09:52:37 AM 39.9053 -88.4819 268° West 373 429 34,000  Level Chicago Center
Thu 09:53:39 AM 39.8972 -88.6442 266° West 374 430 34,000  Level Chicago Center
Thu 09:54:44 AM 39.8894 -88.7833 266° West 377 434 34,000  Level Kansas City Center
Thu 09:55:46 AM 39.8828 -88.9208 266° West 380 437 34,000  Level Kansas City Center
Thu 09:56:48 AM 39.8744 -89.0589 266° West 381 438 34,000  Level Kansas City Center
Thu 09:57:49 AM 39.8664 -89.1992 266° West 386 444 34,000  Level Kansas City Center
Thu 09:58:51 AM 39.8575 -89.3686 266° West 389 448 34,000  Level Kansas City Center
Thu 09:59:53 AM 39.8494 -89.5094 266° West 390 449 34,000  Level Kansas City Center
Thu 10:00:54 AM 39.8406 -89.6503 265° West 390 449 34,000  Level Kansas City Center
Thu 10:01:56 AM 39.8408 -89.7917 270° West 391 450 34,000  Level Kansas City Center
Thu 10:02:58 AM 39.8425 -89.9308 271° West 386 444 34,000  Level Kansas City Center
Thu 10:03:59 AM 39.8439 -90.0711 271° West 387 445 34,000  Level Kansas City Center
Thu 10:05:01 AM 39.8450 -90.2128 271° West 389 448 34,000  Level Kansas City Center
Thu 10:06:03 AM 39.8458 -90.3542 270° West 390 449 34,000 -976 Level Kansas City Center
Thu 10:07:04 AM 39.8478 -90.4931 271° West 387 445 32,000 -2,146 Descending Kansas City Center
Thu 10:08:06 AM 39.8478 -90.6597 270° West 383 441 29,600 -2,129 Descending Kansas City Center
Thu 10:09:08 AM 39.8492 -90.7986 271° West 384 442 27,600 -1,756 Descending Kansas City Center
Thu 10:10:09 AM 39.8494 -90.9358 270° West 381 438 26,000 -780 Descending Kansas City Center
Thu 10:11:11 AM 39.8492 -91.0569 270° West 368 423 26,000  Level Kansas City Center
Thu 10:12:12 AM 39.8489 -91.1883 270° West 365 420 26,000  Level Kansas City Center
Thu 10:13:14 AM 39.8450 -91.3467 268° West 367 422 26,000  Level Kansas City Center
Thu 10:14:16 AM 39.8331 -91.4800 263° West 371 427 26,000  Level Kansas City Center
Thu 10:15:17 AM 39.8225 -91.6156 264° West 376 433 26,000  Level Kansas City Center
Thu 10:16:19 AM 39.8131 -91.7458 265° West 369 425 26,000  Level Kansas City Center
Thu 10:17:20 AM 39.8031 -91.8714 264° West 357 411 26,000  Level Kansas City Center
Thu 10:18:22 AM 39.7939 -91.9928 264° West 346 398 26,000  Level Kansas City Center
Thu 10:19:24 AM 39.7847 -92.1139 264° West 340 391 26,000  Level Kansas City Center
Thu 10:20:25 AM 39.7731 -92.2567 264° West 335 386 26,000  Level Kansas City Center
Thu 10:21:27 AM 39.7628 -92.3781 264° West 336 387 26,000  Level Kansas City Center
Thu 10:22:28 AM 39.7531 -92.5003 264° West 339 390 26,000  Level Kansas City Center
Thu 10:23:30 AM 39.7428 -92.6236 264° West 341 392 26,000  Level Kansas City Center
Thu 10:24:32 AM 39.7319 -92.7478 264° West 345 397 26,000 -195 Level Kansas City Center
Thu 10:25:33 AM 39.7206 -92.8808 264° West 361 415 25,600 -1,220 Descending Kansas City Center
Thu 10:26:35 AM 39.7092 -93.0156 264° West 373 429 23,500 -2,146 Descending Kansas City Center
Thu 10:27:36 AM 39.6961 -93.1642 264° West 352 405 21,200 -2,098 Descending Kansas City Center
Thu 10:28:38 AM 39.6842 -93.2833 263° West 338 389 19,200 -1,984 Descending Kansas City Center
Thu 10:29:40 AM 39.6750 -93.4008 264° West 331 381 17,100 -2,000 Descending Kansas City Center
Thu 10:30:41 AM 39.6653 -93.5119 264° West 323 372 15,100 -1,902 Descending Kansas City Center
Thu 10:31:43 AM 39.6542 -93.6231 263° West 315 362 13,200 -1,500 Descending Kansas City Center
Thu 10:32:45 AM 39.6425 -93.7475 263° West 303 349 12,000 -1,512 Descending Kansas City Center
Thu 10:33:46 AM 39.6317 -93.8533 262° West 289 333 10,100 -976 Descending Kansas City Center
Thu 10:34:48 AM 39.6069 -93.9472 251° West 287 330 10,000 -48 Descending Kansas City Center
Thu 10:35:50 AM 39.5808 -94.0414 250° West 288 331 10,000  Level Kansas City Center
Thu 10:36:51 AM 39.5497 -94.1533 250° West 294 338 10,000 -732 Level Kansas City Center
Thu 10:37:53 AM 39.5272 -94.2378 251° West 263 303 8,500 -1,694 Descending Kansas City Center
Thu 10:38:55 AM 39.5000 -94.3331 250° West 252 290 6,500 -1,220 Descending Kansas City Center
Thu 10:39:56 AM 39.4778 -94.4161 251° West 253 291 6,000 -732 Descending Kansas City Center
Thu 10:40:58 AM 39.4511 -94.5108 250° West 251 289 5,000 -1,306 Descending Kansas City Center
Thu 10:42:00 AM 39.4286 -94.5903 250° West 247 284 3,300 -1,645 Descending Kansas City Center

Login

Don't have an account? Register now (free) for customized features, flight alerts, and more!